Aérodrome :
LOGIN :

S'inscrire | Disclaimer

   EN    FR    IT 

 










Légende :    VFR   VFR Marginal   IFR   IFR Intensif   IFR Très Intensif
Visi : 
Plafond : 
>= 8 km
>= 3000ft
5 à 8 km
1000 à 3000 ft
1500m à 5 km
500 à 1000 ft
800 à 1500m
200 à 500 ft
< 800m
< 200 ft
Symboles :   Orages  Brouillard  Fortes neiges  Fortes précipitations  Vent > 20 kt
SIGMETs :   Divers  Orages  Givrage  Turbulence  Onde Orograph.  Cendres Volcan.






- Altitude de l'aérodrome : 36 ft
- Code IATA : LTQ


LFAT - Le Touquet

DERNIER METAR :
  • 251530Z AUTO 13004KT 090V150 9000 -RA BKN038 BKN049 OVC056 11/10 Q1015 NOSIG

METARs EXPIRÉS :
  • 251500Z AUTO 12005KT 060V140 9999 BKN035 OVC041 11/10 Q1015 NOSIG
  • 251430Z AUTO 13004KT 9999 SCT035 BKN041 BKN050 11/10 Q1015 NOSIG
  • 251400Z AUTO 14004KT 9999 OVC043 11/09 Q1014 TEMPO BKN008
  • 251330Z AUTO 15005KT 9999 RA BKN041 OVC058 11/09 Q1014 TEMPO BKN008 BECMG NSW
  • 251300Z AUTO 15005KT 9999 BKN041 OVC049 10/08 Q1014 TEMPO BKN008

TAF TAF LFAT
Valide du 25 à 15h jusqu'au 26 à 00h UTC


251400Z 2515/2524 15006KT 9999 SCT013 BKN040
ATIS : +33 3 21 06 62 84



MET'MAP, la Météo Aéronautique d'un coup d'oeil ! - Copyright ORBIFLY Décembre 2007 - Disclaimer

ORBIFLY MET'MAP TEAM :

Programmation & Développement : Alexandra Zaïnal
Sur une idée originale de : Baudouin d'Aumeries
Assistance à la programmation : Marc-Olivier Méhu
Soutien technique & logistique : Manuel Goepfert

Contact : metmap@orbifly.com




SOURCES & CREDITS :

   NOAA